Time;durP1;ratioP1;P1;durP2;ratioP2;P2;SDS_P1;SDS_P2;PMS_P1;PMS_P2;Temp;Humidity;BMP_temperature;BMP_pressure;BME280_temperature;BME280_humidity;BME280_pressure;Samples;Min_cycle;Max_cycle;Signal;HPM_P1;HPM_P2
2022/01/22 00:00:27;;;;;;;4.07;1.10;;;8.30;65.90;;;;;;5082795;28;20047;-76
2022/01/22 00:03:32;;;;;;;3.33;1.02;;;8.30;65.70;;;;;;5095315;28;20036;-77
2022/01/22 00:06:36;;;;;;;4.15;1.45;;;8.20;66.30;;;;;;5095305;28;20039;-76
2022/01/22 00:09:47;;;;;;;1.85;0.90;;;8.20;66.10;;;;;;5095059;28;20040;-76
2022/01/22 00:16:04;;;;;;;3.13;1.10;;;8.10;67.20;;;;;;5094619;28;20043;-77
2022/01/22 00:19:09;;;;;;;4.47;1.48;;;8.00;66.80;;;;;;5094865;28;20510;-77
2022/01/22 00:22:13;;;;;;;3.85;1.23;;;8.00;66.40;;;;;;5094307;28;20032;-76
2022/01/22 00:25:21;;;;;;;7.13;1.38;;;8.00;66.40;;;;;;5081907;28;20487;-76
2022/01/22 00:28:25;;;;;;;6.18;1.05;;;7.80;65.60;;;;;;5094836;28;20040;-76
2022/01/22 00:31:30;;;;;;;2.67;0.95;;;7.80;66.60;;;;;;5070919;28;20071;-76
2022/01/22 00:34:34;;;;;;;2.00;0.80;;;7.70;65.10;;;;;;5094251;28;20052;-75
2022/01/22 00:37:41;;;;;;;6.82;1.20;;;7.70;64.10;;;;;;5081827;28;20036;-76
2022/01/22 00:40:51;;;;;;;4.25;0.93;;;7.70;64.10;;;;;;5081927;28;20043;-75
2022/01/22 00:43:55;;;;;;;2.83;0.93;;;7.70;64.60;;;;;;5081910;28;20032;-76
2022/01/22 00:47:00;;;;;;;5.80;1.10;;;7.70;65.50;;;;;;5081802;28;20039;-75
2022/01/22 00:50:07;;;;;;;5.93;1.42;;;7.70;65.20;;;;;;5094364;28;20028;-74
2022/01/22 00:53:11;;;;;;;3.70;1.13;;;7.70;66.00;;;;;;5094265;28;20036;-75
2022/01/22 00:56:15;;;;;;;4.38;1.10;;;7.70;65.80;;;;;;5094068;28;20032;-76
2022/01/22 00:59:19;;;;;;;2.45;0.75;;;7.60;64.90;;;;;;5093033;28;20031;-76
2022/01/22 01:02:24;;;;;;;6.72;1.02;;;7.60;64.70;;;;;;5094305;28;20044;-76
2022/01/22 01:05:28;;;;;;;4.65;1.13;;;7.70;65.20;;;;;;5093612;28;20032;-76
2022/01/22 01:08:34;;;;;;;2.63;1.00;;;7.60;64.60;;;;;;5081456;28;20036;-76
2022/01/22 01:11:45;;;;;;;5.25;1.15;;;7.60;64.60;;;;;;5093434;28;20039;-76
2022/01/22 01:35:11;;;;;;;6.38;1.33;;;7.50;62.50;;;;;;5080742;28;20056;-76
2022/01/22 01:38:19;;;;;;;6.00;1.00;;;7.40;62.70;;;;;;5080823;28;20036;-77
2022/01/22 01:44:37;;;;;;;2.53;0.90;;;7.40;63.70;;;;;;5080832;28;20372;-76
2022/01/22 01:47:54;;;;;;;2.58;0.70;;;7.40;62.80;;;;;;5069320;28;20035;-76
2022/01/22 01:50:59;;;;;;;1.55;0.80;;;7.40;63.40;;;;;;5092726;28;20031;-76
2022/01/22 01:54:28;;;;;;;2.72;0.70;;;7.40;62.60;;;;;;5080738;28;20032;-76
2022/01/22 01:57:38;;;;;;;2.05;0.70;;;7.40;61.90;;;;;;5080428;28;20028;-76
2022/01/22 02:00:44;;;;;;;4.88;0.80;;;7.40;61.90;;;;;;5080314;28;20047;-76
2022/01/22 02:03:49;;;;;;;3.17;0.80;;;7.40;60.50;;;;;;5080159;28;20496;-77
2022/01/22 02:06:58;;;;;;;2.92;0.90;;;7.40;61.20;;;;;;5080302;28;20036;-77
2022/01/22 02:10:12;;;;;;;5.35;0.70;;;7.40;61.40;;;;;;5080181;28;20040;-76
2022/01/22 02:23:50;;;;;;;5.03;0.70;;;7.20;61.60;;;;;;5080096;28;20028;-77
2022/01/22 02:26:54;;;;;;;3.83;0.70;;;7.20;61.80;;;;;;5079690;28;20381;-76
2022/01/22 02:30:05;;;;;;;2.20;0.80;;;7.10;60.70;;;;;;5079812;28;20036;-75
2022/01/22 02:36:45;;;;;;;3.42;0.70;;;7.20;62.20;;;;;;5079990;28;20055;-76
2022/01/22 02:43:31;;;;;;;8.82;0.80;;;7.10;62.90;;;;;;5039909;28;20493;-77
2022/01/22 02:46:38;;;;;;;2.88;0.80;;;7.10;62.60;;;;;;5092193;28;20036;-76
2022/01/22 02:49:42;;;;;;;3.05;0.80;;;7.00;61.90;;;;;;5079968;28;20487;-77
2022/01/22 02:52:48;;;;;;;2.35;0.80;;;7.10;62.70;;;;;;5091869;28;20028;-74
2022/01/22 02:55:53;;;;;;;2.22;0.90;;;7.00;63.20;;;;;;5079703;28;20484;-75
2022/01/22 02:58:59;;;;;;;3.55;0.80;;;7.00;62.70;;;;;;5067950;28;20032;-76
2022/01/22 03:02:04;;;;;;;2.30;0.80;;;7.00;63.00;;;;;;5079276;28;20048;-77
2022/01/22 03:05:09;;;;;;;2.88;0.70;;;7.00;62.30;;;;;;5079511;28;20032;-77
2022/01/22 03:08:14;;;;;;;6.90;1.00;;;7.00;60.90;;;;;;5079656;28;20373;-75
2022/01/22 03:11:28;;;;;;;3.17;1.05;;;7.10;60.90;;;;;;5079819;28;20036;-77
2022/01/22 03:18:03;;;;;;;4.45;1.63;;;7.10;60.30;;;;;;5079194;28;20040;-77
2022/01/22 03:27:46;;;;;;;8.32;0.90;;;7.00;59.30;;;;;;5071672;28;20036;-75
2022/01/22 03:30:51;;;;;;;2.65;0.60;;;7.10;58.10;;;;;;5083216;28;20036;-74
2022/01/22 03:33:56;;;;;;;1.77;0.70;;;7.10;59.40;;;;;;5082961;28;20043;-77
2022/01/22 03:37:00;;;;;;;1.05;0.80;;;7.10;59.00;;;;;;5083019;28;20032;-76
2022/01/22 03:40:05;;;;;;;2.10;0.68;;;7.10;58.50;;;;;;5083122;28;20036;-76
2022/01/22 03:43:09;;;;;;;3.33;0.70;;;7.10;58.40;;;;;;5083202;28;20032;-75
2022/01/22 03:46:13;;;;;;;3.30;1.25;;;7.10;58.40;;;;;;5095714;28;20036;-76
2022/01/22 03:49:17;;;;;;;2.40;0.60;;;7.10;58.30;;;;;;5082907;28;20036;-76
2022/01/22 03:52:22;;;;;;;2.88;0.70;;;7.10;57.50;;;;;;5082675;28;20036;-75
2022/01/22 03:59:02;;;;;;;1.83;0.70;;;7.10;58.00;;;;;;5094450;28;20479;-75
2022/01/22 04:09:11;;;;;;;2.95;0.73;;;7.20;58.20;;;;;;5094378;28;20483;-78
2022/01/22 04:12:21;;;;;;;2.63;0.85;;;7.20;58.00;;;;;;5082038;28;20036;-77
2022/01/22 04:15:28;;;;;;;4.72;0.80;;;7.20;57.40;;;;;;5094261;28;20058;-77
2022/01/22 04:25:22;;;;;;;1.42;0.63;;;7.20;58.20;;;;;;5081562;28;20044;-77
2022/01/22 04:28:27;;;;;;;1.45;0.50;;;7.20;57.80;;;;;;5094266;28;20048;-76
2022/01/22 04:31:31;;;;;;;3.10;0.80;;;7.10;57.80;;;;;;5094234;28;20606;-77
2022/01/22 04:34:35;;;;;;;1.90;0.47;;;7.10;58.20;;;;;;5081275;28;20048;-77
2022/01/22 04:37:39;;;;;;;4.15;0.80;;;7.10;58.20;;;;;;5093902;28;20036;-77
2022/01/22 04:40:43;;;;;;;2.15;0.75;;;7.10;57.80;;;;;;5081165;28;20040;-77
2022/01/22 04:43:49;;;;;;;3.70;0.70;;;7.10;57.90;;;;;;5093772;28;20028;-77
2022/01/22 04:47:12;;;;;;;2.20;0.75;;;7.10;57.70;;;;;;5081157;28;20039;-76
2022/01/22 04:57:02;;;;;;;2.88;0.80;;;7.00;59.00;;;;;;5081161;28;20048;-77
2022/01/22 05:00:16;;;;;;;3.60;1.13;;;6.90;59.30;;;;;;5081403;28;20353;-74
2022/01/22 05:03:43;;;;;;;5.80;1.15;;;6.90;58.50;;;;;;5093574;28;20040;-76
2022/01/22 05:07:06;;;;;;;7.10;1.48;;;6.90;59.30;;;;;;5093433;28;20040;-77
2022/01/22 05:10:21;;;;;;;2.45;0.77;;;6.90;59.60;;;;;;5080778;28;20024;-77
2022/01/22 05:13:26;;;;;;;3.10;0.90;;;6.90;59.20;;;;;;5093072;28;20164;-77
2022/01/22 05:16:30;;;;;;;3.15;0.95;;;6.90;58.50;;;;;;5081100;28;20036;-76
2022/01/22 05:26:03;;;;;;;1.70;0.98;;;6.90;58.90;;;;;;5080400;28;20040;-77
2022/01/22 05:39:38;;;;;;;6.88;1.10;;;6.90;59.70;;;;;;5080251;28;20036;-76
2022/01/22 05:42:42;;;;;;;5.18;1.10;;;6.80;59.90;;;;;;5080227;28;20396;-77
2022/01/22 05:45:46;;;;;;;2.08;0.80;;;6.80;60.00;;;;;;5079906;28;20036;-77
2022/01/22 05:48:51;;;;;;;3.15;0.90;;;6.80;60.10;;;;;;5092751;28;20044;-77
2022/01/22 05:51:57;;;;;;;3.35;0.98;;;6.80;60.30;;;;;;5093098;28;20032;-76
2022/01/22 06:01:34;;;;;;;5.65;0.90;;;6.70;60.90;;;;;;5068612;28;20052;-77
2022/01/22 06:04:49;;;;;;;1.17;0.70;;;6.70;60.40;;;;;;5079932;28;20040;-77
2022/01/22 06:07:56;;;;;;;2.63;0.85;;;6.70;60.60;;;;;;5079660;28;20032;-76
2022/01/22 06:11:08;;;;;;;1.83;0.68;;;6.70;59.70;;;;;;5079920;28;20032;-77
2022/01/22 06:14:14;;;;;;;5.07;1.00;;;6.70;59.90;;;;;;5079753;28;20472;-76
2022/01/22 06:17:22;;;;;;;2.85;0.90;;;6.70;59.20;;;;;;5068592;28;20032;-74
2022/01/22 06:20:32;;;;;;;4.30;1.10;;;6.80;59.40;;;;;;5067813;28;20040;-75
2022/01/22 06:23:38;;;;;;;3.35;1.20;;;6.80;59.50;;;;;;5067529;28;20032;-75
2022/01/22 06:26:42;;;;;;;3.22;0.98;;;6.80;60.00;;;;;;5079203;28;20372;-75
2022/01/22 06:29:46;;;;;;;2.45;0.70;;;6.80;59.00;;;;;;5079240;28;20041;-77
2022/01/22 06:32:51;;;;;;;1.48;0.82;;;6.80;58.80;;;;;;5079233;28;20439;-77
2022/01/22 06:35:55;;;;;;;7.65;1.70;;;6.80;58.70;;;;;;5091819;28;20028;-77
2022/01/22 06:39:11;;;;;;;7.00;2.50;;;6.90;58.80;;;;;;5079406;28;20044;-76
2022/01/22 06:42:35;;;;;;;2.33;1.30;;;7.00;58.80;;;;;;5071523;28;20048;-76
2022/01/22 06:45:53;;;;;;;6.50;1.63;;;7.00;58.50;;;;;;5079232;28;20475;-77
2022/01/22 06:48:57;;;;;;;2.78;0.68;;;7.00;58.00;;;;;;5079024;28;20036;-77
2022/01/22 06:52:06;;;;;;;3.00;1.00;;;7.00;57.90;;;;;;5078832;28;20028;-76
2022/01/22 06:55:12;;;;;;;1.77;1.00;;;7.00;57.20;;;;;;5079149;28;20048;-77
2022/01/22 06:58:17;;;;;;;4.60;1.55;;;7.00;58.10;;;;;;5078257;28;20372;-77
2022/01/22 07:01:27;;;;;;;2.88;0.80;;;7.10;58.10;;;;;;5078802;28;20051;-77
2022/01/22 07:04:37;;;;;;;2.65;1.67;;;7.10;58.30;;;;;;5079104;28;20396;-77
2022/01/22 07:08:11;;;;;;;6.78;1.10;;;7.10;58.70;;;;;;5052505;28;20028;-77
2022/01/22 07:11:20;;;;;;;4.07;0.95;;;7.20;58.70;;;;;;5078782;28;20039;-77
2022/01/22 07:14:26;;;;;;;5.72;1.88;;;7.20;58.00;;;;;;5078506;28;20024;-77
2022/01/22 07:17:35;;;;;;;4.97;1.70;;;7.20;57.90;;;;;;5078839;28;20472;-76
2022/01/22 07:20:45;;;;;;;3.88;1.05;;;7.20;58.10;;;;;;5078567;28;20040;-77
2022/01/22 07:27:01;;;;;;;4.07;0.95;;;7.30;56.80;;;;;;5078525;28;20036;-76
2022/01/22 07:30:09;;;;;;;6.20;1.45;;;7.30;57.60;;;;;;5078741;28;20036;-69
2022/01/22 07:33:17;;;;;;;4.63;1.20;;;7.50;57.60;;;;;;5078122;28;20048;-69
2022/01/22 07:36:21;;;;;;;5.20;1.27;;;7.60;56.60;;;;;;5078117;28;20475;-68
2022/01/22 07:39:26;;;;;;;4.88;1.60;;;7.60;56.60;;;;;;5078394;28;20028;-68
2022/01/22 07:42:50;;;;;;;2.38;1.00;;;7.70;57.20;;;;;;5090980;28;20040;-68
2022/01/22 07:46:13;;;;;;;4.55;1.10;;;7.80;57.20;;;;;;5090768;28;20044;-73
2022/01/22 07:49:26;;;;;;;1.92;0.80;;;7.80;57.50;;;;;;5078279;28;20032;-69
2022/01/22 07:52:35;;;;;;;2.03;0.90;;;7.90;59.00;;;;;;5078225;28;20040;-70
2022/01/22 07:55:39;;;;;;;2.70;1.20;;;7.90;57.50;;;;;;5078114;28;20056;-70
2022/01/22 07:58:43;;;;;;;2.53;1.23;;;7.90;58.50;;;;;;5090401;28;20032;-70
2022/01/22 08:01:47;;;;;;;2.67;0.85;;;7.90;59.60;;;;;;5066244;28;20052;-67
2022/01/22 08:04:57;;;;;;;3.03;1.27;;;8.00;60.70;;;;;;5090375;28;20028;-69
2022/01/22 08:08:20;;;;;;;2.35;0.75;;;8.10;58.60;;;;;;5092278;28;20044;-71
2022/01/22 08:11:48;;;;;;;3.70;1.08;;;8.10;59.70;;;;;;5089717;28;20040;-71
2022/01/22 08:14:52;;;;;;;7.07;1.30;;;8.20;59.40;;;;;;5082085;28;20032;-70
2022/01/22 08:17:56;;;;;;;3.55;0.98;;;8.20;57.30;;;;;;5093994;28;20040;-69
2022/01/22 08:21:01;;;;;;;3.63;0.85;;;8.30;58.70;;;;;;5081357;28;20048;-70
2022/01/22 08:24:26;;;;;;;2.70;1.10;;;8.30;61.10;;;;;;5093800;28;20032;-69
2022/01/22 08:31:18;;;;;;;3.53;1.35;;;8.50;58.30;;;;;;5077431;28;20044;-71
2022/01/22 08:37:46;;;;;;;4.65;1.20;;;8.90;58.00;;;;;;5069795;28;20036;-72
2022/01/22 08:40:51;;;;;;;4.57;1.23;;;9.10;56.40;;;;;;5081052;28;20032;-73
2022/01/22 08:43:57;;;;;;;3.65;1.00;;;9.30;56.20;;;;;;5080955;28;20376;-74
2022/01/22 08:47:02;;;;;;;2.45;1.10;;;9.70;57.20;;;;;;5081176;28;20032;-71
2022/01/22 08:50:07;;;;;;;5.32;1.30;;;9.90;53.80;;;;;;5081104;28;20036;-72
2022/01/22 08:53:11;;;;;;;4.32;2.30;;;10.10;54.80;;;;;;5080915;28;20036;-71
2022/01/22 08:56:16;;;;;;;4.88;1.30;;;10.30;54.90;;;;;;5081140;28;20047;-71
2022/01/22 08:59:21;;;;;;;5.00;1.50;;;10.40;53.60;;;;;;5081070;28;20043;-72
2022/01/22 09:02:30;;;;;;;4.88;2.10;;;10.40;52.80;;;;;;5080995;28;20046;-72
2022/01/22 09:05:53;;;;;;;5.07;1.23;;;10.50;53.80;;;;;;5080717;28;20043;-69
2022/01/22 09:09:17;;;;;;;3.65;1.38;;;10.50;52.60;;;;;;5093039;28;20039;-71
2022/01/22 09:12:44;;;;;;;7.47;1.25;;;10.30;53.40;;;;;;5093244;28;20039;-72
2022/01/22 09:16:00;;;;;;;5.65;1.33;;;10.30;53.40;;;;;;5080594;28;20043;-71
2022/01/22 09:19:06;;;;;;;7.10;1.30;;;10.30;52.40;;;;;;5092362;28;20043;-71
2022/01/22 09:22:11;;;;;;;9.25;1.60;;;10.30;53.30;;;;;;5080120;28;20055;-69
2022/01/22 09:25:16;;;;;;;4.45;1.15;;;10.40;52.40;;;;;;5068897;28;20043;-69
2022/01/22 09:28:21;;;;;;;5.90;1.70;;;10.50;52.70;;;;;;5080259;28;20050;-70
2022/01/22 09:31:30;;;;;;;5.88;1.38;;;10.50;51.90;;;;;;5080443;28;20043;-70
2022/01/22 09:34:35;;;;;;;3.65;1.38;;;10.60;51.80;;;;;;5051673;28;20051;-73
2022/01/22 09:38:02;;;;;;;1.92;0.90;;;10.50;52.70;;;;;;5054660;28;20055;-74
2022/01/22 09:41:27;;;;;;;4.05;0.90;;;10.50;50.80;;;;;;5051347;28;20055;-72
2022/01/22 09:44:42;;;;;;;2.10;1.05;;;10.60;51.40;;;;;;5052388;28;20044;-71
2022/01/22 09:48:00;;;;;;;3.22;1.00;;;10.60;51.80;;;;;;5051350;28;20044;-71
2022/01/22 09:51:03;;;;;;;2.15;0.95;;;10.60;51.00;;;;;;5051811;28;20043;-71
2022/01/22 09:54:10;;;;;;;4.70;0.85;;;10.70;51.60;;;;;;5051931;28;20043;-71
2022/01/22 09:57:35;;;;;;;2.75;0.98;;;10.60;50.60;;;;;;5051870;28;20052;-70
2022/01/22 10:01:29;;;;;;;2.95;0.90;;;10.60;49.80;;;;;;5051027;28;20516;-73
2022/01/22 10:04:39;;;;;;;2.63;0.95;;;10.60;51.20;;;;;;5062447;28;20048;-73
2022/01/22 10:08:28;;;;;;;2.40;1.20;;;10.80;49.80;;;;;;5051850;28;20044;-70
2022/01/22 10:12:14;;;;;;;4.55;1.40;;;10.90;49.40;;;;;;5050987;28;20048;-68
2022/01/22 10:15:44;;;;;;;2.95;0.90;;;10.70;50.50;;;;;;5051338;28;20052;-70
2022/01/22 10:19:10;;;;;;;6.13;1.30;;;10.70;48.90;;;;;;5050767;28;20044;-73
2022/01/22 10:22:15;;;;;;;5.47;1.95;;;10.60;48.90;;;;;;5050271;28;20063;-71
2022/01/22 10:25:26;;;;;;;2.08;0.90;;;10.90;49.50;;;;;;5051672;28;20388;-71
2022/01/22 10:28:39;;;;;;;6.00;1.13;;;11.00;47.60;;;;;;5049830;28;20044;-71
2022/01/22 10:31:43;;;;;;;4.82;1.80;;;11.20;48.50;;;;;;5050700;28;20408;-71
2022/01/22 10:35:12;;;;;;;5.10;1.20;;;11.00;48.90;;;;;;5051142;28;20056;-71
2022/01/22 10:38:49;;;;;;;8.45;1.60;;;11.20;48.80;;;;;;5012869;28;20044;-72
2022/01/22 10:41:53;;;;;;;4.53;1.70;;;11.20;49.50;;;;;;5050932;28;20071;-71
2022/01/22 10:45:00;;;;;;;2.17;1.20;;;11.30;48.30;;;;;;5051408;28;20044;-72
2022/01/22 10:48:20;;;;;;;2.33;1.13;;;11.30;48.80;;;;;;5050811;28;20056;-72
2022/01/22 10:51:26;;;;;;;2.55;1.08;;;11.50;48.70;;;;;;5051214;28;20048;-72
2022/01/22 10:54:33;;;;;;;4.15;1.52;;;11.40;47.90;;;;;;5050835;28;20383;-72
2022/01/22 10:57:37;;;;;;;3.78;1.60;;;11.60;48.70;;;;;;5050878;28;20048;-72
2022/01/22 11:00:41;;;;;;;1.70;1.20;;;11.80;49.50;;;;;;5050980;28;20492;-69
2022/01/22 11:03:46;;;;;;;6.35;1.60;;;11.70;47.50;;;;;;5050670;28;20056;-71
2022/01/22 11:06:56;;;;;;;6.30;2.22;;;11.60;48.40;;;;;;5050807;28;20043;-71
2022/01/22 11:10:00;;;;;;;6.40;3.38;;;11.60;47.60;;;;;;5050980;28;20063;-72
2022/01/22 11:13:04;;;;;;;5.50;3.22;;;11.70;47.90;;;;;;5050844;28;20044;-71
2022/01/22 11:16:10;;;;;;;4.68;2.22;;;11.60;47.50;;;;;;5050940;28;20044;-69
2022/01/22 11:19:22;;;;;;;3.30;1.33;;;11.80;47.10;;;;;;5050509;28;20496;-71
2022/01/22 11:22:26;;;;;;;2.90;1.88;;;11.80;47.00;;;;;;5050294;28;20519;-71
2022/01/22 11:25:34;;;;;;;3.17;1.50;;;11.80;47.60;;;;;;5050703;28;20047;-71
2022/01/22 11:28:39;;;;;;;2.53;1.63;;;11.90;47.20;;;;;;5050767;28;20052;-70
2022/01/22 11:31:48;;;;;;;3.15;1.40;;;11.80;48.20;;;;;;5050916;28;20071;-72
2022/01/22 11:34:57;;;;;;;2.97;1.40;;;11.70;48.40;;;;;;5050651;28;20064;-72
2022/01/22 11:38:16;;;;;;;3.50;1.45;;;11.60;46.90;;;;;;5050991;28;20044;-70
2022/01/22 11:41:21;;;;;;;4.35;2.00;;;11.70;48.20;;;;;;5050501;28;20059;-73
2022/01/22 11:44:34;;;;;;;3.15;1.70;;;11.60;47.50;;;;;;5054350;28;20044;-73
2022/01/22 11:47:38;;;;;;;5.35;2.28;;;11.30;47.40;;;;;;5054554;28;20040;-70
2022/01/22 11:50:45;;;;;;;2.83;1.88;;;11.30;48.40;;;;;;5054407;28;20051;-72
2022/01/22 11:53:57;;;;;;;6.72;2.28;;;11.40;50.10;;;;;;5054231;28;20036;-70
2022/01/22 11:57:14;;;;;;;2.97;1.90;;;11.60;50.60;;;;;;5054424;28;20040;-70
2022/01/22 12:00:32;;;;;;;5.90;1.83;;;11.70;48.30;;;;;;5054440;28;20621;-74
2022/01/22 12:03:57;;;;;;;2.33;1.45;;;11.60;47.60;;;;;;5053513;28;20064;-70
2022/01/22 12:07:01;;;;;;;3.53;1.50;;;11.40;48.60;;;;;;5054320;28;20040;-69
2022/01/22 12:17:14;;;;;;;8.07;1.88;;;11.50;49.10;;;;;;5053000;28;20040;-70
2022/01/22 12:20:42;;;;;;;4.38;1.70;;;11.50;48.50;;;;;;5053670;28;20037;-70
2022/01/22 12:23:48;;;;;;;5.95;1.80;;;11.60;49.80;;;;;;5053635;28;20064;-69
2022/01/22 12:26:53;;;;;;;7.45;2.40;;;11.70;49.70;;;;;;5053119;28;20048;-70
2022/01/22 12:30:00;;;;;;;9.80;1.80;;;11.70;49.00;;;;;;5053500;28;20405;-69
2022/01/22 12:33:11;;;;;;;6.00;2.60;;;11.70;50.50;;;;;;5068185;28;20514;-69
2022/01/22 12:36:19;;;;;;;7.38;3.88;;;11.80;50.80;;;;;;5093887;28;20051;-70
2022/01/22 12:39:28;;;;;;;4.55;2.30;;;11.90;50.10;;;;;;5093666;28;20039;-69
2022/01/22 12:43:03;;;;;;;3.35;2.10;;;11.80;48.30;;;;;;5093765;28;20047;-69
2022/01/22 12:46:08;;;;;;;5.65;2.33;;;11.60;47.90;;;;;;5093449;28;20046;-69
2022/01/22 12:49:14;;;;;;;4.45;2.53;;;11.50;48.90;;;;;;5093604;28;20057;-70
2022/01/22 12:52:19;;;;;;;5.72;3.22;;;11.50;48.00;;;;;;5093427;28;20040;-70
2022/01/22 12:55:39;;;;;;;6.57;2.38;;;11.50;48.70;;;;;;5093594;28;20074;-70
2022/01/22 12:58:43;;;;;;;5.10;2.35;;;11.50;49.00;;;;;;5093671;28;20043;-70
2022/01/22 13:01:51;;;;;;;5.63;2.20;;;11.60;50.10;;;;;;5093186;28;20051;-71
2022/01/22 13:05:02;;;;;;;7.57;3.25;;;11.70;50.50;;;;;;5093625;28;20036;-69
2022/01/22 13:08:31;;;;;;;5.10;2.40;;;11.60;49.50;;;;;;5080917;28;20047;-70
2022/01/22 13:11:59;;;;;;;4.55;2.00;;;11.50;48.70;;;;;;5092963;28;20043;-70
2022/01/22 13:15:04;;;;;;;3.30;2.08;;;11.50;48.10;;;;;;5093226;28;20541;-71
2022/01/22 13:18:09;;;;;;;4.18;1.83;;;11.60;48.70;;;;;;5092973;28;20035;-71
2022/01/22 13:21:15;;;;;;;4.50;2.10;;;11.50;47.70;;;;;;5092962;28;20059;-70
2022/01/22 13:24:23;;;;;;;2.45;1.70;;;11.50;48.10;;;;;;5092902;28;20495;-69
2022/01/22 13:27:27;;;;;;;3.35;1.85;;;11.50;48.50;;;;;;5092926;28;20047;-71
2022/01/22 13:30:38;;;;;;;5.47;1.85;;;11.40;47.90;;;;;;5092827;28;20423;-71
2022/01/22 13:37:27;;;;;;;3.17;1.70;;;11.40;49.50;;;;;;5092714;28;20043;-71
2022/01/22 13:40:34;;;;;;;6.20;2.13;;;11.50;50.90;;;;;;5092559;28;20047;-71
2022/01/22 13:50:42;;;;;;;8.85;2.58;;;11.60;50.00;;;;;;5070221;28;20048;-70
2022/01/22 13:53:47;;;;;;;9.25;1.85;;;11.70;50.10;;;;;;5092352;28;20047;-75
2022/01/22 13:56:56;;;;;;;10.88;3.13;;;11.70;50.70;;;;;;5079745;28;20047;-75
2022/01/22 14:00:09;;;;;;;4.28;2.30;;;11.70;51.10;;;;;;5092239;28;20039;-73
2022/01/22 14:03:59;;;;;;;8.43;2.17;;;11.70;51.10;;;;;;5092070;28;20055;-73
2022/01/22 14:06:46;;;;;;;7.85;2.42;;;11.70;51.00;;;;;;5094221;28;20043;-77
2022/01/22 14:09:54;;;;;;;8.52;2.03;;;11.70;51.50;;;;;;5092030;28;20068;-77
2022/01/22 14:13:06;;;;;;;4.43;2.33;;;11.70;51.10;;;;;;5092111;28;20039;-77
2022/01/22 14:16:16;;;;;;;4.35;2.15;;;11.70;51.50;;;;;;5092257;28;20043;-77
2022/01/22 14:19:29;;;;;;;8.05;2.55;;;11.70;51.50;;;;;;5091535;28;20110;-76
2022/01/22 14:22:54;;;;;;;9.98;3.13;;;11.70;51.10;;;;;;5091467;28;20051;-76
2022/01/22 14:26:01;;;;;;;8.25;2.90;;;11.60;51.60;;;;;;5091168;28;20396;-77
2022/01/22 14:29:14;;;;;;;6.40;2.40;;;11.60;51.90;;;;;;5079115;28;20427;-76
2022/01/22 14:32:18;;;;;;;5.65;2.42;;;11.60;51.30;;;;;;5091043;28;20036;-76
2022/01/22 14:35:22;;;;;;;7.10;2.60;;;11.60;51.20;;;;;;5091380;28;20115;-75
2022/01/22 14:45:30;;;;;;;10.18;4.05;;;11.50;51.80;;;;;;5090620;28;20055;-78
2022/01/22 14:48:34;;;;;;;8.68;4.30;;;11.50;52.90;;;;;;5090380;28;20043;-77
2022/01/22 14:51:38;;;;;;;6.53;3.63;;;11.50;52.70;;;;;;5090826;28;20102;-78
2022/01/22 14:54:44;;;;;;;5.30;3.28;;;11.50;53.20;;;;;;5090407;28;20475;-78
2022/01/22 14:57:49;;;;;;;9.82;3.42;;;11.40;52.30;;;;;;5090678;28;20063;-77
2022/01/22 15:00:53;;;;;;;9.00;3.58;;;11.40;53.10;;;;;;5077529;28;20668;-77
2022/01/22 15:03:57;;;;;;;10.43;3.72;;;11.30;52.90;;;;;;5090752;28;20051;-77
2022/01/22 15:07:05;;;;;;;10.52;3.65;;;11.30;53.20;;;;;;5090931;28;20051;-77
2022/01/22 15:10:11;;;;;;;8.95;4.00;;;11.30;53.60;;;;;;5090958;28;20051;-77
2022/01/22 15:13:15;;;;;;;7.72;3.90;;;11.30;54.10;;;;;;5090979;28;20039;-77
2022/01/22 15:16:21;;;;;;;12.27;5.20;;;11.20;54.30;;;;;;5091240;28;20043;-77
2022/01/22 15:19:26;;;;;;;15.98;5.30;;;11.20;53.40;;;;;;5082114;28;20047;-77
2022/01/22 15:22:30;;;;;;;15.30;5.45;;;11.20;54.00;;;;;;5082413;28;20070;-77
2022/01/22 15:25:34;;;;;;;10.52;4.95;;;11.10;53.70;;;;;;5095256;28;20039;-77
2022/01/22 15:28:45;;;;;;;9.35;4.40;;;11.10;53.70;;;;;;5082702;28;20047;-77
2022/01/22 15:32:06;;;;;;;9.23;3.97;;;11.10;54.50;;;;;;5082505;28;20076;-77
2022/01/22 15:35:13;;;;;;;5.97;4.07;;;11.10;53.80;;;;;;5095077;28;20072;-77
2022/01/22 15:38:17;;;;;;;10.00;4.88;;;11.10;54.10;;;;;;5094994;28;20044;-77
2022/01/22 15:41:21;;;;;;;16.90;4.97;;;11.00;55.80;;;;;;5094362;28;20059;-77
2022/01/22 15:44:25;;;;;;;14.48;6.32;;;11.00;56.90;;;;;;5082322;28;20042;-77
2022/01/22 15:47:29;;;;;;;10.90;5.65;;;11.00;56.30;;;;;;5094412;28;20043;-77
2022/01/22 15:50:34;;;;;;;13.98;6.43;;;10.90;55.90;;;;;;5094389;28;20394;-77
2022/01/22 15:53:38;;;;;;;11.52;5.43;;;10.90;56.30;;;;;;5094698;28;20059;-77
2022/01/22 15:56:46;;;;;;;13.50;7.53;;;10.90;56.20;;;;;;5094834;28;20391;-77
2022/01/22 15:59:50;;;;;;;17.55;6.10;;;10.80;56.60;;;;;;5094506;28;20522;-77
2022/01/22 16:02:56;;;;;;;25.70;7.30;;;10.70;57.50;;;;;;5081291;28;20051;-77
2022/01/22 16:06:07;;;;;;;15.38;7.65;;;10.70;58.20;;;;;;5093904;28;20059;-77
2022/01/22 16:09:23;;;;;;;31.38;13.15;;;10.60;58.40;;;;;;5081567;28;20051;-77
2022/01/22 16:12:28;;;;;;;28.15;12.15;;;10.60;58.60;;;;;;5093832;28;20071;-77
2022/01/22 16:15:32;;;;;;;19.27;10.70;;;10.50;59.40;;;;;;5094333;28;20046;-77
2022/01/22 16:18:36;;;;;;;23.02;9.75;;;10.50;59.10;;;;;;5093819;28;20059;-77
2022/01/22 16:21:42;;;;;;;25.45;11.43;;;10.40;58.90;;;;;;5093895;28;20046;-77
2022/01/22 16:24:46;;;;;;;24.52;13.65;;;10.40;59.20;;;;;;5093658;28;20047;-77
2022/01/22 16:27:50;;;;;;;24.83;13.55;;;10.30;59.40;;;;;;5093616;28;20035;-78
2022/01/22 16:30:54;;;;;;;29.02;14.05;;;10.30;59.50;;;;;;5093521;28;20051;-78
2022/01/22 16:33:59;;;;;;;23.70;13.75;;;10.20;59.70;;;;;;5093810;28;20063;-78
2022/01/22 16:37:04;;;;;;;22.45;15.30;;;10.10;59.80;;;;;;5093879;28;20043;-78
2022/01/22 16:40:14;;;;;;;37.33;19.33;;;10.00;60.20;;;;;;5093498;28;20224;-77
2022/01/22 16:43:18;;;;;;;24.02;14.38;;;10.00;61.30;;;;;;5093255;28;20054;-78
2022/01/22 16:46:47;;;;;;;23.90;11.52;;;9.90;61.60;;;;;;5093543;28;20047;-78
2022/01/22 16:56:44;;;;;;;40.47;16.15;;;9.70;65.90;;;;;;5093018;28;20066;-77
2022/01/22 16:59:53;;;;;;;35.53;13.52;;;9.50;65.00;;;;;;5093357;28;20051;-78
2022/01/22 17:02:58;;;;;;;39.00;15.43;;;9.40;65.50;;;;;;5092817;28;20075;-78
2022/01/22 17:06:03;;;;;;;31.33;15.32;;;9.30;65.90;;;;;;5093010;28;20047;-78
2022/01/22 17:09:59;;;;;;;27.70;14.95;;;9.30;66.50;;;;;;5080200;28;20043;-78
2022/01/22 17:15:53;;;;;;;37.38;15.40;;;9.00;66.90;;;;;;5080512;28;20051;-77
2022/01/22 17:18:57;;;;;;;35.60;17.73;;;8.90;67.30;;;;;;5092886;28;20535;-77
2022/01/22 17:22:02;;;;;;;45.70;22.60;;;8.90;68.70;;;;;;5092430;28;20045;-77
2022/01/22 17:25:07;;;;;;;41.33;24.90;;;8.80;67.50;;;;;;5092539;28;20471;-77
2022/01/22 17:28:11;;;;;;;42.92;23.05;;;8.80;67.60;;;;;;5080081;28;20035;-77
2022/01/22 17:31:20;;;;;;;46.67;25.13;;;8.80;68.50;;;;;;5092550;28;20043;-77
2022/01/22 17:34:26;;;;;;;58.08;26.10;;;8.70;68.40;;;;;;5092296;28;20059;-77
2022/01/22 17:37:30;;;;;;;111.85;58.20;;;8.70;68.80;;;;;;5092681;28;20047;-78
2022/01/22 17:40:36;;;;;;;132.75;71.35;;;8.60;66.70;;;;;;5091807;28;20070;-78
2022/01/22 17:43:42;;;;;;;79.13;43.03;;;8.40;67.30;;;;;;5092279;28;20043;-78
2022/01/22 17:46:46;;;;;;;106.55;53.72;;;8.30;69.10;;;;;;5092580;28;20047;-78
2022/01/22 17:49:50;;;;;;;102.00;55.90;;;8.40;68.20;;;;;;5092362;28;20043;-78
2022/01/22 17:52:54;;;;;;;124.90;67.32;;;8.40;68.10;;;;;;5092107;28;20047;-79
2022/01/22 17:55:58;;;;;;;93.70;52.10;;;8.10;67.50;;;;;;5092171;28;20046;-79
2022/01/22 17:59:03;;;;;;;91.80;50.30;;;8.10;67.90;;;;;;5092081;28;20414;-79
2022/01/22 18:02:07;;;;;;;93.50;54.08;;;8.20;67.20;;;;;;5092220;28;20043;-78
2022/01/22 18:05:11;;;;;;;111.30;59.40;;;8.30;66.30;;;;;;5092041;28;20403;-79
2022/01/22 18:08:16;;;;;;;98.80;56.70;;;8.40;66.10;;;;;;5092021;28;20047;-79
2022/01/22 18:11:21;;;;;;;104.15;62.10;;;8.40;65.60;;;;;;5092293;28;20071;-79
2022/01/22 18:14:25;;;;;;;108.95;63.08;;;8.40;65.50;;;;;;5092012;28;20043;-79
2022/01/22 18:17:29;;;;;;;100.60;57.28;;;8.40;65.90;;;;;;5092004;28;20050;-79
2022/01/22 18:20:33;;;;;;;107.80;63.75;;;8.60;65.40;;;;;;5079473;28;20063;-79
2022/01/22 18:23:37;;;;;;;117.25;69.28;;;8.60;65.50;;;;;;5091521;28;20063;-79
2022/01/22 18:26:42;;;;;;;138.95;84.60;;;8.50;65.70;;;;;;5091616;28;20043;-79
2022/01/22 18:29:46;;;;;;;128.48;73.78;;;8.40;66.40;;;;;;5079200;28;20043;-79
2022/01/22 18:32:50;;;;;;;115.60;64.28;;;8.20;67.40;;;;;;5091262;28;20054;-79
2022/01/22 18:35:55;;;;;;;119.47;67.38;;;8.10;67.40;;;;;;5091546;28;20055;-79
2022/01/22 18:39:01;;;;;;;113.05;63.58;;;8.00;67.30;;;;;;5091678;28;20062;-79
2022/01/22 18:42:07;;;;;;;114.78;67.68;;;8.10;66.90;;;;;;5091014;28;20044;-79
2022/01/22 18:45:11;;;;;;;116.78;67.88;;;8.20;66.40;;;;;;5091698;28;20039;-79
2022/01/22 18:48:17;;;;;;;117.30;70.07;;;8.30;66.40;;;;;;5091222;28;20043;-79
2022/01/22 18:51:21;;;;;;;123.60;71.25;;;8.30;66.30;;;;;;5078650;28;20043;-79